createdAt,value
2023-07-18T00:00:58.850Z,89.6
2023-07-18T00:05:58.724Z,89.6
2023-07-18T00:10:58.750Z,90.2
2023-07-18T00:15:58.771Z,89.8
2023-07-18T00:20:58.752Z,89.8
2023-07-18T00:25:58.735Z,89.8
2023-07-18T00:30:58.749Z,89.8
2023-07-18T00:35:58.741Z,90.0
2023-07-18T00:40:58.751Z,89.9
2023-07-18T00:45:58.788Z,90.0
2023-07-18T00:50:58.784Z,90.2
2023-07-18T00:55:58.753Z,89.9
2023-07-18T01:00:58.784Z,90.4
2023-07-18T01:05:58.766Z,90.5
2023-07-18T01:10:58.760Z,90.6
2023-07-18T01:15:58.907Z,90.7
2023-07-18T01:20:58.791Z,91.2
2023-07-18T01:25:58.784Z,91.5
2023-07-18T01:30:58.789Z,91.9
2023-07-18T01:35:58.774Z,92.9
2023-07-18T01:40:58.776Z,92.6
2023-07-18T01:45:58.799Z,92.6
2023-07-18T01:50:58.828Z,92.7
2023-07-18T01:55:58.793Z,93.5
2023-07-18T02:00:58.811Z,93.6
2023-07-18T02:05:58.794Z,93.6
2023-07-18T02:10:58.804Z,93.3
2023-07-18T02:15:58.806Z,93.2
2023-07-18T02:20:58.838Z,93.1
2023-07-18T02:25:58.815Z,93.2
2023-07-18T02:30:58.864Z,94.0
2023-07-18T02:35:58.819Z,94.1
2023-07-18T02:40:58.822Z,94.3
2023-07-18T02:45:58.846Z,94.2
2023-07-18T02:50:58.856Z,94.4
2023-07-18T02:55:58.828Z,94.4
2023-07-18T03:00:58.834Z,94.2
2023-07-18T03:05:58.836Z,94.2
2023-07-18T03:10:58.834Z,94.3
2023-07-18T03:15:58.832Z,94.4
2023-07-18T03:20:58.867Z,94.5
2023-07-18T03:25:58.841Z,94.7
2023-07-18T03:30:58.844Z,94.7
2023-07-18T03:35:58.859Z,95.6
2023-07-18T03:40:58.860Z,95.8
2023-07-18T03:45:58.908Z,95.8
2023-07-18T03:50:58.884Z,95.7
2023-07-18T03:55:58.854Z,95.7
2023-07-18T04:00:58.863Z,96.2
2023-07-18T04:05:58.875Z,96.1
2023-07-18T04:10:58.881Z,95.3
2023-07-18T04:15:58.891Z,95.1
2023-07-18T04:20:58.911Z,94.8
2023-07-18T04:25:58.907Z,94.8
2023-07-18T04:30:58.880Z,94.6
2023-07-18T04:35:58.894Z,94.7
2023-07-18T04:40:58.896Z,94.7
2023-07-18T04:45:58.958Z,94.4
2023-07-18T04:50:58.921Z,94.2
2023-07-18T04:55:58.940Z,93.9
2023-07-18T05:00:58.948Z,93.7
2023-07-18T05:05:58.913Z,93.5
2023-07-18T05:10:58.918Z,93.0
2023-07-18T05:15:58.994Z,92.6
2023-07-18T05:20:58.944Z,92.3
2023-07-18T05:25:58.922Z,91.7
2023-07-18T05:30:58.952Z,91.1
2023-07-18T05:35:58.942Z,89.6
2023-07-18T05:40:58.962Z,88.9
2023-07-18T05:45:58.952Z,88.7
2023-07-18T05:50:58.965Z,87.9
2023-07-18T05:55:58.938Z,87.1
2023-07-18T06:00:58.989Z,86.8
2023-07-18T06:05:58.947Z,85.4
2023-07-18T06:10:58.979Z,84.1
2023-07-18T06:15:58.967Z,82.5
2023-07-18T06:20:58.994Z,83.0
2023-07-18T06:25:58.981Z,82.0
2023-07-18T06:30:59.001Z,82.3
2023-07-18T06:35:58.983Z,82.6
2023-07-18T06:40:58.985Z,83.1
2023-07-18T06:45:58.968Z,82.5
2023-07-18T06:50:59.003Z,81.1
2023-07-18T06:55:58.977Z,81.0
2023-07-18T07:00:59.015Z,81.2
2023-07-18T07:05:58.977Z,80.3
2023-07-18T07:10:58.995Z,77.5
2023-07-18T07:15:59.002Z,76.8
2023-07-18T07:20:59.016Z,76.3
2023-07-18T07:25:58.987Z,72.2
2023-07-18T07:30:59.057Z,69.6
2023-07-18T07:35:58.998Z,68.5
2023-07-18T07:40:59.017Z,66.6
2023-07-18T07:45:59.002Z,66.3
2023-07-18T07:50:59.035Z,65.2
2023-07-18T07:55:59.022Z,65.8
2023-07-18T08:00:59.018Z,65.6
2023-07-18T08:05:59.026Z,63.1
2023-07-18T08:10:59.019Z,60.3
2023-07-18T08:15:59.063Z,57.9
2023-07-18T08:20:59.061Z,56.8
2023-07-18T08:25:59.029Z,53.6
2023-07-18T08:30:59.039Z,54.1
2023-07-18T08:35:59.036Z,52.8
2023-07-18T08:40:59.036Z,50.9
2023-07-18T08:45:59.093Z,51.4
2023-07-18T08:50:59.077Z,49.5
2023-07-18T08:55:59.113Z,48.1
2023-07-18T09:00:59.078Z,47.5
2023-07-18T09:05:59.072Z,46.5
2023-07-18T09:10:59.065Z,46.5
2023-07-18T09:15:59.073Z,46.1
2023-07-18T09:20:59.092Z,45.1
2023-07-18T09:25:59.071Z,45.8
2023-07-18T09:30:59.076Z,46.6
2023-07-18T09:35:59.080Z,45.1
2023-07-18T09:40:59.082Z,44.9
2023-07-18T09:45:59.204Z,46.0
2023-07-18T09:50:59.122Z,44.0
2023-07-18T09:55:59.128Z,43.0
2023-07-18T10:00:59.134Z,44.4
2023-07-18T10:05:59.092Z,45.2
2023-07-18T10:10:59.098Z,46.2
2023-07-18T10:15:59.145Z,48.3
2023-07-18T10:20:59.136Z,48.5
2023-07-18T10:25:59.140Z,47.0
2023-07-18T10:30:59.165Z,47.9
2023-07-18T10:35:59.140Z,49.3
2023-07-18T10:40:59.124Z,49.6
2023-07-18T10:45:59.163Z,51.1
2023-07-18T10:50:59.139Z,50.6
2023-07-18T10:55:59.154Z,49.6
2023-07-18T11:00:59.152Z,49.2
2023-07-18T11:05:59.130Z,52.4
2023-07-18T11:10:59.192Z,52.0
2023-07-18T11:15:59.142Z,52.2
2023-07-18T11:21:00.070Z,51.2
2023-07-18T11:25:59.149Z,50.8
2023-07-18T11:30:59.170Z,48.8
2023-07-18T11:35:59.159Z,45.9
2023-07-18T11:40:59.166Z,48.8
2023-07-18T11:45:59.155Z,47.2
2023-07-18T11:50:59.183Z,49.7
2023-07-18T11:55:59.165Z,48.2
2023-07-18T12:00:59.186Z,47.5
2023-07-18T12:05:59.184Z,47.0
2023-07-18T12:11:08.814Z,46.1
2023-07-18T12:15:59.219Z,47.1
2023-07-18T12:20:59.220Z,46.9
2023-07-18T12:25:59.206Z,46.7
2023-07-18T12:30:59.258Z,45.1
2023-07-18T12:35:59.204Z,45.0
2023-07-18T12:40:59.201Z,43.8
2023-07-18T12:45:59.203Z,43.2
2023-07-18T12:50:59.227Z,47.2
2023-07-18T12:55:59.226Z,44.9
2023-07-18T13:00:59.204Z,45.1
2023-07-18T13:05:59.220Z,42.3
2023-07-18T13:10:59.218Z,40.9
2023-07-18T13:15:59.270Z,36.9
2023-07-18T13:20:59.250Z,40.0
2023-07-18T13:25:59.234Z,40.1
2023-07-18T13:30:59.240Z,41.0
2023-07-18T13:35:59.255Z,42.4
2023-07-18T13:40:59.233Z,43.8
2023-07-18T13:45:59.257Z,41.5
2023-07-18T13:50:59.288Z,42.8
2023-07-18T13:55:59.248Z,42.5
2023-07-18T14:00:59.247Z,42.3
2023-07-18T14:05:59.252Z,41.0
2023-07-18T14:10:59.274Z,39.2
2023-07-18T14:15:59.280Z,42.6
2023-07-18T14:20:59.285Z,41.1
2023-07-18T14:25:59.267Z,41.6
2023-07-18T14:30:59.297Z,39.6
2023-07-18T14:35:59.273Z,42.5
2023-07-18T14:40:59.279Z,40.1
2023-07-18T14:45:59.320Z,41.9
2023-07-18T14:50:59.320Z,42.2
2023-07-18T14:55:59.283Z,42.4
2023-07-18T15:00:59.298Z,43.8
2023-07-18T15:05:59.295Z,45.1
2023-07-18T15:10:59.298Z,40.2
2023-07-18T15:15:59.384Z,43.2
2023-07-18T15:20:59.341Z,43.2
2023-07-18T15:25:59.328Z,41.9
2023-07-18T15:30:59.314Z,42.4
2023-07-18T15:35:59.303Z,42.5
2023-07-18T15:40:59.643Z,42.3
2023-07-18T15:45:59.366Z,40.4
2023-07-18T15:50:59.340Z,43.6
2023-07-18T15:55:59.321Z,42.7
2023-07-18T16:00:59.347Z,44.0
2023-07-18T16:05:59.335Z,43.8
2023-07-18T16:10:59.327Z,43.5
2023-07-18T16:15:59.400Z,43.1
2023-07-18T16:20:59.365Z,44.9
2023-07-18T16:25:59.342Z,46.2
2023-07-18T16:30:59.412Z,47.1
2023-07-18T16:35:59.351Z,47.5
2023-07-18T16:40:59.380Z,47.0
2023-07-18T16:45:59.365Z,48.9
2023-07-18T16:50:59.387Z,49.4
2023-07-18T16:55:59.362Z,50.9
2023-07-18T17:00:59.409Z,50.5
2023-07-18T17:05:59.367Z,52.7
2023-07-18T17:10:59.396Z,54.6
2023-07-18T17:15:59.378Z,55.3
2023-07-18T17:20:59.399Z,53.3
2023-07-18T17:26:00.835Z,53.2
2023-07-18T17:30:59.434Z,58.8
2023-07-18T17:35:59.391Z,61.2
2023-07-18T17:40:59.403Z,60.4
2023-07-18T17:45:59.389Z,60.5
2023-07-18T17:50:59.424Z,57.0
2023-07-18T17:55:59.403Z,61.4
2023-07-18T18:00:59.398Z,61.1
2023-07-18T18:05:59.408Z,58.7
2023-07-18T18:10:59.405Z,58.3
2023-07-18T18:16:08.329Z,58.1
2023-07-18T18:20:59.458Z,58.2
2023-07-18T18:25:59.432Z,59.0
2023-07-18T18:30:59.542Z,60.8
2023-07-18T18:35:59.425Z,60.1
2023-07-18T18:40:59.432Z,62.0
2023-07-18T18:45:59.459Z,60.7
2023-07-18T18:50:59.462Z,61.9
2023-07-18T18:55:59.434Z,61.7
2023-07-18T19:00:59.451Z,59.3
2023-07-18T19:05:59.447Z,61.9
2023-07-18T19:11:07.217Z,63.5
2023-07-18T19:15:59.452Z,64.1
2023-07-18T19:20:59.478Z,62.7
2023-07-18T19:25:59.501Z,64.3
2023-07-18T19:30:59.474Z,65.0
2023-07-18T19:35:59.505Z,65.6
2023-07-18T19:40:59.468Z,65.6
2023-07-18T19:45:59.505Z,66.1
2023-07-18T19:50:59.507Z,66.3
2023-07-18T19:55:59.477Z,66.3
2023-07-18T20:00:59.492Z,67.5
2023-07-18T20:05:59.483Z,67.8
2023-07-18T20:10:59.496Z,68.3
2023-07-18T20:15:59.517Z,67.9
2023-07-18T20:20:59.518Z,68.0
2023-07-18T20:25:59.496Z,68.7
2023-07-18T20:30:59.501Z,69.2
2023-07-18T20:35:59.508Z,68.6
2023-07-18T20:40:59.504Z,68.7
2023-07-18T20:45:59.573Z,70.0
2023-07-18T20:50:59.538Z,70.7
2023-07-18T20:55:59.529Z,68.9
2023-07-18T21:00:59.544Z,68.9
2023-07-18T21:05:59.525Z,69.7
2023-07-18T21:10:59.531Z,70.2
2023-07-18T21:15:59.549Z,72.1
2023-07-18T21:20:59.568Z,72.9
2023-07-18T21:25:59.538Z,73.0
2023-07-18T21:30:59.617Z,73.3
2023-07-18T21:35:59.543Z,73.8
2023-07-18T21:40:59.558Z,74.1
2023-07-18T21:45:59.654Z,74.5
2023-07-18T21:50:59.585Z,75.1
2023-07-18T21:56:02.298Z,74.9
2023-07-18T22:00:59.595Z,75.2
2023-07-18T22:05:59.572Z,75.8
2023-07-18T22:10:59.568Z,76.1
2023-07-18T22:15:59.567Z,77.1
2023-07-18T22:20:59.591Z,77.5
2023-07-18T22:26:12.933Z,77.7
2023-07-18T22:30:59.588Z,78.0
2023-07-18T22:35:59.578Z,78.1
2023-07-18T22:40:59.585Z,78.9
2023-07-18T22:45:59.585Z,78.1
2023-07-18T22:50:59.632Z,78.1
2023-07-18T22:55:59.597Z,79.0
2023-07-18T23:00:59.716Z,80.0
2023-07-18T23:05:59.609Z,80.0
2023-07-18T23:10:59.614Z,80.7
2023-07-18T23:15:59.609Z,81.2
2023-07-18T23:20:59.631Z,81.3
2023-07-18T23:25:59.614Z,81.3
2023-07-18T23:30:59.681Z,81.2
2023-07-18T23:35:59.627Z,81.1
2023-07-18T23:40:59.633Z,81.0
2023-07-18T23:45:59.692Z,82.6
2023-07-18T23:50:59.659Z,83.7
2023-07-18T23:55:59.624Z,83.9
